createdAt,value
2023-05-05T00:00:04.892Z,0.67
2023-05-05T00:01:04.894Z,0.67
2023-05-05T00:02:04.902Z,0.66
2023-05-05T00:03:04.920Z,0.66
2023-05-05T00:04:04.951Z,0.67
2023-05-05T00:05:04.900Z,0.67
2023-05-05T00:06:05.017Z,0.65
2023-05-05T00:07:04.987Z,0.65
2023-05-05T00:08:04.997Z,0.67
2023-05-05T00:09:05.025Z,0.66
2023-05-05T00:10:05.081Z,0.67
2023-05-05T00:11:05.063Z,0.66
2023-05-05T00:12:05.122Z,0.66
2023-05-05T00:13:05.194Z,0.66
2023-05-05T00:14:05.117Z,0.66
2023-05-05T00:15:05.127Z,0.66
2023-05-05T00:16:05.152Z,0.67
2023-05-05T00:17:05.262Z,0.67
2023-05-05T00:18:05.279Z,0.66
2023-05-05T00:19:05.201Z,0.66
2023-05-05T00:20:05.325Z,0.66
2023-05-05T00:21:05.255Z,0.68
2023-05-05T00:22:05.263Z,0.67
2023-05-05T00:23:05.382Z,0.64
2023-05-05T00:24:05.454Z,0.67
2023-05-05T00:25:05.581Z,0.67
2023-05-05T00:26:05.798Z,0.66
2023-05-05T00:27:05.664Z,0.68
2023-05-05T00:28:05.671Z,0.66
2023-05-05T00:29:05.704Z,0.67
2023-05-05T00:30:05.831Z,0.66
2023-05-05T00:31:05.773Z,0.66
2023-05-05T00:32:05.758Z,0.66
2023-05-05T00:33:05.794Z,0.66
2023-05-05T00:34:05.789Z,0.65
2023-05-05T00:35:05.822Z,0.66
2023-05-05T00:36:05.799Z,0.65
2023-05-05T00:37:05.801Z,0.66
2023-05-05T00:38:05.876Z,0.66
2023-05-05T00:39:05.990Z,0.66
2023-05-05T00:40:06.232Z,0.67
2023-05-05T00:41:06.018Z,0.65
2023-05-05T00:42:06.040Z,0.66
2023-05-05T00:43:06.069Z,0.68
2023-05-05T00:44:06.038Z,0.66
2023-05-05T00:45:06.052Z,0.65
2023-05-05T00:46:06.109Z,0.66
2023-05-05T00:47:06.191Z,0.66
2023-05-05T00:48:06.288Z,0.65
2023-05-05T00:49:06.276Z,0.65
2023-05-05T00:50:06.643Z,0.65
2023-05-05T00:51:06.272Z,0.64
2023-05-05T00:52:06.335Z,0.65
2023-05-05T00:53:06.297Z,0.65
2023-05-05T00:54:06.283Z,0.66
2023-05-05T00:55:06.316Z,0.65
2023-05-05T00:56:06.411Z,0.65
2023-05-05T00:57:06.391Z,0.66
2023-05-05T00:58:06.421Z,0.65
2023-05-05T00:59:06.431Z,0.63
2023-05-05T01:00:06.688Z,0.66
2023-05-05T01:01:06.541Z,0.64
2023-05-05T01:02:06.563Z,0.66
2023-05-05T01:03:06.659Z,0.65
2023-05-05T01:04:06.763Z,0.65
2023-05-05T01:05:06.594Z,0.65
2023-05-05T01:06:06.606Z,0.64
2023-05-05T01:07:06.732Z,0.65
2023-05-05T01:08:06.723Z,0.63
2023-05-05T01:09:06.779Z,0.63
2023-05-05T01:10:18.981Z,0.65
2023-05-05T01:11:07.797Z,0.65
2023-05-05T01:12:06.788Z,0.65
2023-05-05T01:13:06.809Z,0.64
2023-05-05T01:14:06.756Z,0.64
2023-05-05T01:15:06.759Z,0.64
2023-05-05T01:16:06.790Z,0.65
2023-05-05T01:17:06.707Z,0.65
2023-05-05T01:18:06.905Z,0.64
2023-05-05T01:19:06.680Z,0.64
2023-05-05T01:20:06.788Z,0.65
2023-05-05T01:21:06.672Z,0.64
2023-05-05T01:22:06.667Z,0.63
2023-05-05T01:23:06.652Z,0.63
2023-05-05T01:24:06.640Z,0.65
2023-05-05T01:25:06.672Z,0.65
2023-05-05T01:26:06.627Z,0.66
2023-05-05T01:27:06.646Z,0.65
2023-05-05T01:28:06.608Z,0.63
2023-05-05T01:29:06.606Z,0.63
2023-05-05T01:30:06.743Z,0.63
2023-05-05T01:31:06.595Z,0.64
2023-05-05T01:32:06.602Z,0.63
2023-05-05T01:33:06.604Z,0.65
2023-05-05T01:34:06.617Z,0.64
2023-05-05T01:35:06.626Z,0.63
2023-05-05T01:36:06.637Z,0.63
2023-05-05T01:37:06.634Z,0.63
2023-05-05T01:38:06.838Z,0.64
2023-05-05T01:39:06.696Z,0.62
2023-05-05T01:40:06.979Z,0.62
2023-05-05T01:41:06.747Z,0.63
2023-05-05T01:42:06.761Z,0.64
2023-05-05T01:43:06.797Z,0.62
2023-05-05T01:44:06.797Z,0.63
2023-05-05T01:45:06.829Z,0.63
2023-05-05T01:46:06.836Z,0.64
2023-05-05T01:47:06.815Z,0.63
2023-05-05T01:48:06.835Z,0.63
2023-05-05T01:49:06.885Z,0.62
2023-05-05T01:50:07.017Z,0.63
2023-05-05T01:51:06.931Z,0.63
2023-05-05T01:52:06.949Z,0.63
2023-05-05T01:53:06.967Z,0.63
2023-05-05T01:54:06.969Z,0.63
2023-05-05T01:55:06.989Z,0.62
2023-05-05T01:56:07.007Z,0.62
2023-05-05T01:57:06.974Z,0.63
2023-05-05T01:58:07.015Z,0.64
2023-05-05T01:59:07.051Z,0.63
2023-05-05T02:00:07.286Z,0.62
2023-05-05T02:01:07.071Z,0.62
2023-05-05T02:02:07.094Z,0.61
2023-05-05T02:03:07.181Z,0.62
2023-05-05T02:04:07.122Z,0.62
2023-05-05T02:05:07.136Z,0.62
2023-05-05T02:06:07.218Z,0.62
2023-05-05T02:07:07.208Z,0.63
2023-05-05T02:08:07.236Z,0.61
2023-05-05T02:09:07.245Z,0.62
2023-05-05T02:10:07.468Z,0.62
2023-05-05T02:11:07.282Z,0.63
2023-05-05T02:12:07.394Z,0.62
2023-05-05T02:13:07.401Z,0.63
2023-05-05T02:14:07.345Z,0.62
2023-05-05T02:15:07.363Z,0.62
2023-05-05T02:16:07.406Z,0.61
2023-05-05T02:17:07.402Z,0.62
2023-05-05T02:18:07.422Z,0.61
2023-05-05T02:19:07.460Z,0.63
2023-05-05T02:20:07.703Z,0.62
2023-05-05T02:21:07.483Z,0.63
2023-05-05T02:22:07.505Z,0.61
2023-05-05T02:23:07.540Z,0.61
2023-05-05T02:24:07.543Z,0.61
2023-05-05T02:25:07.604Z,0.61
2023-05-05T02:26:07.622Z,0.61
2023-05-05T02:27:07.634Z,0.61
2023-05-05T02:28:07.690Z,0.62
2023-05-05T02:29:07.708Z,0.61
2023-05-05T02:30:07.982Z,0.62
2023-05-05T02:31:07.714Z,0.62
2023-05-05T02:32:07.754Z,0.61
2023-05-05T02:33:07.758Z,0.61
2023-05-05T02:34:07.763Z,0.61
2023-05-05T02:35:07.794Z,0.61
2023-05-05T02:36:07.826Z,0.61
2023-05-05T02:37:07.876Z,0.61
2023-05-05T02:38:07.904Z,0.61
2023-05-05T02:39:07.910Z,0.61
2023-05-05T02:40:08.120Z,0.60
2023-05-05T02:41:07.967Z,0.61
2023-05-05T02:42:07.978Z,0.61
2023-05-05T02:43:08.054Z,0.61
2023-05-05T02:44:08.020Z,0.61
2023-05-05T02:45:08.029Z,0.59
2023-05-05T02:46:08.121Z,0.62
2023-05-05T02:47:08.094Z,0.62
2023-05-05T02:48:08.295Z,0.59
2023-05-05T02:49:08.163Z,0.60
2023-05-05T02:50:08.237Z,0.59
2023-05-05T02:51:08.197Z,0.61
2023-05-05T02:52:08.206Z,0.61
2023-05-05T02:53:08.258Z,0.62
2023-05-05T02:54:08.281Z,0.60
2023-05-05T02:55:08.287Z,0.60
2023-05-05T02:56:08.340Z,0.62
2023-05-05T02:57:08.366Z,0.60
2023-05-05T02:58:08.428Z,0.60
2023-05-05T02:59:08.399Z,0.60
2023-05-05T03:00:08.603Z,0.59
2023-05-05T03:01:08.506Z,0.60
2023-05-05T03:02:08.477Z,0.60
2023-05-05T03:03:08.586Z,0.60
2023-05-05T03:04:08.548Z,0.59
2023-05-05T03:05:08.548Z,0.61
2023-05-05T03:06:08.581Z,0.61
2023-05-05T03:07:08.644Z,0.62
2023-05-05T03:08:08.658Z,0.60
2023-05-05T03:09:08.669Z,0.60
2023-05-05T03:10:08.890Z,0.59
2023-05-05T03:11:08.735Z,0.61
2023-05-05T03:12:08.780Z,0.60
2023-05-05T03:13:08.954Z,0.60
2023-05-05T03:14:08.868Z,0.60
2023-05-05T03:15:08.847Z,0.60
2023-05-05T03:16:08.947Z,0.60
2023-05-05T03:17:08.922Z,0.59
2023-05-05T03:18:08.942Z,0.59
2023-05-05T03:19:08.961Z,0.59
2023-05-05T03:20:09.079Z,0.59
2023-05-05T03:21:09.064Z,0.61
2023-05-05T03:22:09.064Z,0.60
2023-05-05T03:23:09.071Z,0.59
2023-05-05T03:24:09.103Z,0.59
2023-05-05T03:25:09.126Z,0.59
2023-05-05T03:26:09.150Z,0.59
2023-05-05T03:27:09.178Z,0.59
2023-05-05T03:28:09.185Z,0.60
2023-05-05T03:29:09.197Z,0.59
2023-05-05T03:30:09.541Z,0.59
2023-05-05T03:31:09.273Z,0.58
2023-05-05T03:32:09.366Z,0.60
2023-05-05T03:33:09.387Z,0.59
2023-05-05T03:34:09.356Z,0.59
2023-05-05T03:35:09.353Z,0.59
2023-05-05T03:36:09.379Z,0.58
2023-05-05T03:37:09.396Z,0.60
2023-05-05T03:38:09.418Z,0.59
2023-05-05T03:39:09.450Z,0.60
2023-05-05T03:40:09.595Z,0.59
2023-05-05T03:41:09.522Z,0.59
2023-05-05T03:42:09.549Z,0.59
2023-05-05T03:43:09.566Z,0.60
2023-05-05T03:44:09.584Z,0.61
2023-05-05T03:45:09.601Z,0.59
2023-05-05T03:46:09.678Z,0.59
2023-05-05T03:47:09.702Z,0.59
2023-05-05T03:48:09.791Z,0.60
2023-05-05T03:49:09.744Z,0.59
2023-05-05T03:50:09.855Z,0.59
2023-05-05T03:51:09.800Z,0.59
2023-05-05T03:52:09.838Z,0.59
2023-05-05T03:53:09.868Z,0.58
2023-05-05T03:54:09.917Z,0.59
2023-05-05T03:55:09.939Z,0.59
2023-05-05T03:56:09.958Z,0.59
2023-05-05T03:57:09.989Z,0.58
2023-05-05T03:58:10.035Z,0.59
2023-05-05T03:59:10.075Z,0.58
2023-05-05T04:00:10.093Z,0.59
2023-05-05T04:01:10.109Z,0.60
2023-05-05T04:02:10.153Z,0.59
2023-05-05T04:03:10.408Z,0.58
2023-05-05T04:04:10.211Z,0.58
2023-05-05T04:05:10.227Z,0.58
2023-05-05T04:06:10.253Z,0.59
2023-05-05T04:07:10.268Z,0.60
2023-05-05T04:08:10.329Z,0.59
2023-05-05T04:09:10.358Z,0.57
2023-05-05T04:10:10.621Z,0.59
2023-05-05T04:11:10.394Z,0.57
2023-05-05T04:12:10.464Z,0.57
2023-05-05T04:13:10.540Z,0.59
2023-05-05T04:14:10.501Z,0.58
2023-05-05T04:15:10.522Z,0.58
2023-05-05T04:16:10.550Z,0.58
2023-05-05T04:17:10.560Z,0.59
2023-05-05T04:18:10.654Z,0.59
2023-05-05T04:19:10.968Z,0.59
2023-05-05T04:20:10.848Z,0.58
2023-05-05T04:21:10.670Z,0.58
2023-05-05T04:22:10.703Z,0.59
2023-05-05T04:23:10.731Z,0.58
2023-05-05T04:24:10.745Z,0.59
2023-05-05T04:25:10.776Z,0.57
2023-05-05T04:26:10.840Z,0.58
2023-05-05T04:27:10.871Z,0.57
2023-05-05T04:28:10.862Z,0.57
2023-05-05T04:29:10.895Z,0.58
2023-05-05T04:30:10.931Z,0.58
2023-05-05T04:31:11.022Z,0.57
2023-05-05T04:32:10.998Z,0.57
2023-05-05T04:33:11.027Z,0.58
2023-05-05T04:34:11.058Z,0.57
2023-05-05T04:35:11.058Z,0.58
2023-05-05T04:36:11.153Z,0.57
2023-05-05T04:37:11.138Z,0.58
2023-05-05T04:38:11.193Z,0.58
2023-05-05T04:39:11.230Z,0.59
2023-05-05T04:40:11.248Z,0.58
2023-05-05T04:41:11.267Z,0.59
2023-05-05T04:42:11.274Z,0.59
2023-05-05T04:43:11.315Z,0.58
2023-05-05T04:44:11.333Z,0.58
2023-05-05T04:45:11.386Z,0.58
2023-05-05T04:46:11.425Z,0.57
2023-05-05T04:47:13.212Z,0.58
2023-05-05T04:48:11.424Z,0.58
2023-05-05T04:49:11.405Z,0.58
2023-05-05T04:50:11.488Z,0.58
2023-05-05T04:51:11.394Z,0.57
2023-05-05T04:52:11.403Z,0.57
2023-05-05T04:53:11.399Z,0.58
2023-05-05T04:54:11.370Z,0.57
2023-05-05T04:55:11.367Z,0.56
2023-05-05T04:56:11.399Z,0.57
2023-05-05T04:57:11.361Z,0.58
2023-05-05T04:58:11.391Z,0.56
2023-05-05T04:59:11.332Z,0.57
2023-05-05T05:00:11.540Z,0.58
2023-05-05T05:01:11.328Z,0.57
2023-05-05T05:02:11.368Z,0.57
2023-05-05T05:03:11.360Z,0.56
2023-05-05T05:04:11.326Z,0.59
2023-05-05T05:05:11.306Z,0.57
2023-05-05T05:06:11.295Z,0.57
2023-05-05T05:07:11.271Z,0.57
2023-05-05T05:08:11.305Z,0.57
2023-05-05T05:09:11.245Z,0.57
2023-05-05T05:10:11.336Z,0.56
2023-05-05T05:11:11.256Z,0.56
2023-05-05T05:12:11.263Z,0.57
2023-05-05T05:13:12.692Z,0.56
2023-05-05T05:14:11.263Z,0.57
2023-05-05T05:15:11.224Z,0.57
2023-05-05T05:16:11.284Z,0.57
2023-05-05T05:17:11.192Z,0.55
2023-05-05T05:18:11.179Z,0.57
2023-05-05T05:19:11.202Z,0.56
2023-05-05T05:20:11.452Z,0.56
2023-05-05T05:21:11.403Z,0.56
2023-05-05T05:22:11.159Z,0.57
2023-05-05T05:23:11.233Z,0.55
2023-05-05T05:24:11.151Z,0.56
2023-05-05T05:25:11.127Z,0.56
2023-05-05T05:26:11.248Z,0.56
2023-05-05T05:27:12.012Z,0.55
2023-05-05T05:28:11.203Z,0.55
2023-05-05T05:29:11.134Z,0.55
2023-05-05T05:30:11.116Z,0.56
2023-05-05T05:31:11.169Z,0.55
2023-05-05T05:32:11.136Z,0.56
2023-05-05T05:33:11.187Z,0.56
2023-05-05T05:34:12.717Z,0.57
2023-05-05T05:35:11.139Z,0.56
2023-05-05T05:36:11.179Z,0.56
2023-05-05T05:37:11.304Z,0.56
2023-05-05T05:38:11.202Z,0.57
2023-05-05T05:39:11.230Z,0.58
2023-05-05T05:40:11.298Z,0.59
2023-05-05T05:41:11.326Z,0.59
2023-05-05T05:42:11.307Z,0.61
2023-05-05T05:43:11.343Z,0.61
2023-05-05T05:44:11.316Z,0.65
2023-05-05T05:45:11.326Z,0.64
2023-05-05T05:46:11.457Z,0.66
2023-05-05T05:47:11.770Z,0.68
2023-05-05T05:48:11.611Z,0.68
2023-05-05T05:49:11.620Z,0.68
2023-05-05T05:50:11.609Z,0.70
2023-05-05T05:51:11.649Z,0.72
2023-05-05T05:52:11.673Z,0.73
2023-05-05T05:53:11.683Z,0.73
2023-05-05T05:54:11.724Z,0.75
2023-05-05T05:55:11.854Z,0.75
2023-05-05T05:56:11.809Z,0.75
2023-05-05T05:57:11.807Z,0.77
2023-05-05T05:58:11.885Z,0.76
2023-05-05T05:59:11.802Z,0.77
2023-05-05T06:00:12.438Z,0.77
2023-05-05T06:01:11.796Z,0.76
2023-05-05T06:02:11.875Z,0.77
2023-05-05T06:03:11.914Z,0.77
2023-05-05T06:04:11.873Z,0.76
2023-05-05T06:05:11.803Z,0.78
2023-05-05T06:06:11.881Z,0.77
2023-05-05T06:07:12.414Z,0.78
2023-05-05T06:08:11.956Z,0.79
2023-05-05T06:09:11.978Z,0.78
2023-05-05T06:10:25.833Z,0.78
2023-05-05T06:11:12.954Z,0.78
2023-05-05T06:12:11.974Z,0.78
2023-05-05T06:13:12.027Z,0.78
2023-05-05T06:14:11.930Z,0.78
2023-05-05T06:15:11.930Z,0.78
2023-05-05T06:16:11.918Z,0.79
2023-05-05T06:17:11.955Z,0.78
2023-05-05T06:18:11.944Z,0.79
2023-05-05T06:19:11.989Z,0.80
2023-05-05T06:20:11.883Z,0.79
2023-05-05T06:21:11.912Z,0.78
2023-05-05T06:22:11.888Z,0.79
2023-05-05T06:23:11.878Z,0.78
2023-05-05T06:24:11.931Z,0.78
2023-05-05T06:25:11.841Z,0.78
2023-05-05T06:26:11.832Z,0.78
2023-05-05T06:27:11.836Z,0.78
2023-05-05T06:28:11.874Z,0.79
2023-05-05T06:29:12.429Z,0.78
2023-05-05T06:30:11.864Z,0.77
2023-05-05T06:31:11.886Z,0.78
2023-05-05T06:32:11.920Z,0.77
2023-05-05T06:33:11.877Z,0.80
2023-05-05T06:34:11.905Z,0.79
2023-05-05T06:35:11.987Z,0.77
2023-05-05T06:36:12.128Z,0.79
2023-05-05T06:37:12.095Z,0.79
2023-05-05T06:38:12.129Z,0.78
2023-05-05T06:39:14.024Z,0.80
2023-05-05T06:40:12.122Z,0.84
2023-05-05T06:41:12.079Z,0.86
2023-05-05T06:42:12.086Z,0.88
2023-05-05T06:43:12.051Z,0.90
2023-05-05T06:44:12.055Z,0.93
2023-05-05T06:45:12.048Z,0.96
2023-05-05T06:46:12.046Z,0.99
2023-05-05T06:47:12.453Z,1.00
2023-05-05T06:48:14.910Z,1.03
2023-05-05T06:49:12.037Z,1.03
2023-05-05T06:50:12.037Z,1.03
2023-05-05T06:51:12.010Z,1.04
2023-05-05T06:52:12.072Z,1.08
2023-05-05T06:53:11.992Z,1.08
2023-05-05T06:54:11.982Z,1.13
2023-05-05T06:55:11.978Z,1.16
2023-05-05T06:56:11.999Z,1.19
2023-05-05T06:57:12.021Z,1.26
2023-05-05T06:58:12.093Z,1.12
2023-05-05T06:59:11.998Z,0.90
2023-05-05T07:00:12.035Z,0.76
2023-05-05T07:01:11.964Z,0.66
2023-05-05T07:02:11.956Z,0.60
2023-05-05T07:03:12.071Z,0.68
2023-05-05T07:04:12.058Z,0.69
2023-05-05T07:05:11.974Z,0.70
2023-05-05T07:06:11.939Z,0.73
2023-05-05T07:07:11.956Z,0.73
2023-05-05T07:08:11.952Z,0.75
2023-05-05T07:09:11.905Z,0.78
2023-05-05T07:10:11.908Z,1.02
2023-05-05T07:11:11.868Z,0.94
2023-05-05T07:12:11.862Z,0.90
2023-05-05T07:13:11.947Z,0.93
2023-05-05T07:14:11.988Z,0.92
2023-05-05T07:15:26.033Z,0.93
2023-05-05T07:16:12.930Z,0.93
2023-05-05T07:17:11.821Z,0.94
2023-05-05T07:18:11.873Z,0.96
2023-05-05T07:19:11.822Z,0.97
2023-05-05T07:20:11.845Z,1.00
2023-05-05T07:21:11.796Z,1.02
2023-05-05T07:22:11.813Z,1.07
2023-05-05T07:23:11.795Z,1.08
2023-05-05T07:24:11.851Z,1.08
2023-05-05T07:25:11.778Z,0.84
2023-05-05T07:26:11.783Z,0.88
2023-05-05T07:27:11.763Z,0.88
2023-05-05T07:28:11.769Z,0.91
2023-05-05T07:29:11.990Z,0.90
2023-05-05T07:30:14.753Z,0.94
2023-05-05T07:31:12.861Z,0.94
2023-05-05T07:32:11.769Z,0.94
2023-05-05T07:33:11.752Z,0.94
2023-05-05T07:34:11.950Z,0.81
2023-05-05T07:35:11.729Z,0.71
2023-05-05T07:36:11.769Z,0.58
2023-05-05T07:37:11.690Z,0.57
2023-05-05T07:38:11.716Z,0.63
2023-05-05T07:39:11.686Z,0.58
2023-05-05T07:40:11.796Z,0.50
2023-05-05T07:41:11.672Z,0.49
2023-05-05T07:42:11.676Z,0.48
2023-05-05T07:43:11.646Z,0.50
2023-05-05T07:44:11.642Z,0.50
2023-05-05T07:45:11.655Z,0.52
2023-05-05T07:46:11.749Z,0.50
2023-05-05T07:47:11.659Z,0.50
2023-05-05T07:48:11.662Z,0.50
2023-05-05T07:49:11.672Z,0.51
2023-05-05T07:50:11.755Z,0.54
2023-05-05T07:51:11.755Z,0.53
2023-05-05T07:52:11.717Z,0.50
2023-05-05T07:53:14.917Z,0.50
2023-05-05T07:54:11.693Z,0.52
2023-05-05T07:55:11.708Z,0.49
2023-05-05T07:56:11.674Z,0.50
2023-05-05T07:57:11.650Z,0.53
2023-05-05T07:58:11.682Z,0.51
2023-05-05T07:59:11.684Z,0.52
2023-05-05T08:00:11.776Z,0.52
2023-05-05T08:01:11.627Z,0.51
2023-05-05T08:02:11.767Z,0.52
2023-05-05T08:03:12.300Z,0.50
2023-05-05T08:04:11.678Z,0.50
2023-05-05T08:05:11.704Z,0.50
2023-05-05T08:06:11.612Z,0.53
2023-05-05T08:07:11.580Z,0.60
2023-05-05T08:08:11.595Z,0.58
2023-05-05T08:09:11.656Z,0.68
2023-05-05T08:10:11.584Z,0.75
2023-05-05T08:11:11.575Z,0.79
2023-05-05T08:12:11.976Z,0.82
2023-05-05T08:13:11.556Z,0.89
2023-05-05T08:14:11.533Z,0.98
2023-05-05T08:15:11.656Z,1.10
2023-05-05T08:16:11.534Z,1.11
2023-05-05T08:17:11.528Z,1.20
2023-05-05T08:18:11.593Z,1.25
2023-05-05T08:19:21.542Z,1.31
2023-05-05T08:20:12.489Z,1.31
2023-05-05T08:21:11.484Z,1.33
2023-05-05T08:22:11.494Z,1.38
2023-05-05T08:23:11.570Z,1.47
2023-05-05T08:24:11.471Z,1.42
2023-05-05T08:25:11.477Z,1.42
2023-05-05T08:26:11.447Z,1.99
2023-05-05T08:27:11.460Z,1.73
2023-05-05T08:28:11.490Z,1.72
2023-05-05T08:29:11.533Z,1.70
2023-05-05T08:30:12.020Z,1.70
2023-05-05T08:31:11.445Z,1.64
2023-05-05T08:32:11.417Z,1.69
2023-05-05T08:33:11.459Z,1.69
2023-05-05T08:34:11.517Z,1.76
2023-05-05T08:35:11.999Z,1.72
2023-05-05T08:36:11.429Z,1.76
2023-05-05T08:37:11.395Z,1.82
2023-05-05T08:38:11.486Z,1.84
2023-05-05T08:39:11.392Z,1.81
2023-05-05T08:40:11.391Z,1.86
2023-05-05T08:41:11.392Z,1.88
2023-05-05T08:42:11.400Z,1.91
2023-05-05T08:43:11.346Z,1.94
2023-05-05T08:44:11.532Z,2.06
2023-05-05T08:45:11.597Z,2.21
2023-05-05T08:46:11.375Z,2.23
2023-05-05T08:47:11.366Z,2.22
2023-05-05T08:48:11.340Z,2.32
2023-05-05T08:49:11.287Z,2.43
2023-05-05T08:50:11.334Z,2.49
2023-05-05T08:51:11.292Z,2.69
2023-05-05T08:52:11.349Z,2.86
2023-05-05T08:53:11.386Z,2.92
2023-05-05T08:54:11.287Z,3.02
2023-05-05T08:55:11.255Z,3.23
2023-05-05T08:56:11.227Z,3.37
2023-05-05T08:57:11.253Z,3.47
2023-05-05T08:58:11.233Z,3.59
2023-05-05T08:59:11.264Z,3.78
2023-05-05T09:00:11.366Z,3.89
2023-05-05T09:01:11.433Z,4.09
2023-05-05T09:02:11.487Z,4.20
2023-05-05T09:03:11.751Z,4.40
2023-05-05T09:04:11.536Z,4.50
2023-05-05T09:05:11.563Z,4.69
2023-05-05T09:06:11.673Z,4.76
2023-05-05T09:07:11.681Z,4.95
2023-05-05T09:08:11.716Z,4.93
2023-05-05T09:09:11.723Z,5.06
2023-05-05T09:10:11.825Z,5.15
2023-05-05T09:11:11.805Z,6.34
2023-05-05T09:12:11.850Z,6.02
2023-05-05T09:13:11.881Z,5.86
2023-05-05T09:14:11.886Z,5.74
2023-05-05T09:15:11.932Z,5.65
2023-05-05T09:16:11.978Z,5.70
2023-05-05T09:17:11.967Z,5.82
2023-05-05T09:18:12.054Z,5.75
2023-05-05T09:19:12.048Z,5.92
2023-05-05T09:20:12.046Z,5.90
2023-05-05T09:21:12.050Z,6.05
2023-05-05T09:22:12.149Z,6.26
2023-05-05T09:23:12.130Z,6.23
2023-05-05T09:24:12.225Z,6.56
2023-05-05T09:25:12.173Z,7.33
2023-05-05T09:26:12.192Z,8.76
2023-05-05T09:27:12.201Z,8.73
2023-05-05T09:28:12.210Z,8.43
2023-05-05T09:29:12.199Z,8.30
2023-05-05T09:30:12.204Z,7.88
2023-05-05T09:31:12.401Z,6.21
2023-05-05T09:32:12.225Z,6.16
2023-05-05T09:33:12.300Z,5.08
2023-05-05T09:34:12.241Z,4.87
2023-05-05T09:35:12.384Z,5.22
2023-05-05T09:36:12.282Z,5.18
2023-05-05T09:37:12.249Z,5.29
2023-05-05T09:38:12.498Z,5.35
2023-05-05T09:39:12.271Z,5.41
2023-05-05T09:40:12.273Z,5.63
2023-05-05T09:41:12.298Z,5.27
2023-05-05T09:42:12.247Z,5.48
2023-05-05T09:43:12.320Z,5.82
2023-05-05T09:44:12.521Z,5.65
2023-05-05T09:45:12.277Z,5.34
2023-05-05T09:46:12.295Z,5.30
2023-05-05T09:47:25.907Z,5.24
2023-05-05T09:48:13.301Z,5.25
2023-05-05T09:49:12.331Z,5.25
2023-05-05T09:50:12.284Z,5.25
2023-05-05T09:51:12.359Z,5.04
2023-05-05T09:52:12.267Z,4.87
2023-05-05T09:53:12.252Z,4.81
2023-05-05T09:54:12.284Z,4.83
2023-05-05T09:55:12.251Z,4.51
2023-05-05T09:56:12.253Z,4.44
2023-05-05T09:57:12.255Z,4.21
2023-05-05T09:58:12.271Z,4.05
2023-05-05T09:59:12.229Z,4.04
2023-05-05T10:00:12.265Z,3.95
2023-05-05T10:01:12.250Z,4.12
2023-05-05T10:02:12.220Z,3.94
2023-05-05T10:03:12.213Z,3.82
2023-05-05T10:04:12.183Z,3.58
2023-05-05T10:05:12.262Z,3.60
2023-05-05T10:06:12.304Z,3.46
2023-05-05T10:07:12.307Z,3.37
2023-05-05T10:08:12.433Z,3.31
2023-05-05T10:09:12.421Z,3.28
2023-05-05T10:10:12.530Z,3.13
2023-05-05T10:11:12.494Z,3.12
2023-05-05T10:12:12.566Z,3.09
2023-05-05T10:13:12.707Z,3.01
2023-05-05T10:14:12.701Z,2.89
2023-05-05T10:15:12.722Z,2.82
2023-05-05T10:16:12.781Z,2.63
2023-05-05T10:17:12.797Z,2.37
2023-05-05T10:18:12.983Z,1.95
2023-05-05T10:19:12.932Z,1.83
2023-05-05T10:20:12.939Z,1.42
2023-05-05T10:21:12.945Z,1.47
2023-05-05T10:22:12.996Z,1.20
2023-05-05T10:23:13.056Z,1.07
2023-05-05T10:24:13.083Z,1.07
2023-05-05T10:25:13.050Z,1.34
2023-05-05T10:26:13.071Z,1.64
2023-05-05T10:27:13.117Z,1.74
2023-05-05T10:28:13.520Z,1.45
2023-05-05T10:29:13.087Z,1.25
2023-05-05T10:30:13.098Z,1.08
2023-05-05T10:31:24.176Z,1.35
2023-05-05T10:32:40.826Z,1.10
2023-05-05T10:33:30.280Z,0.97
2023-05-05T10:34:14.131Z,1.12
2023-05-05T10:35:13.093Z,1.23
2023-05-05T10:36:13.118Z,0.98
2023-05-05T10:37:13.107Z,0.71
2023-05-05T10:38:13.096Z,0.80
2023-05-05T10:39:13.077Z,0.84
2023-05-05T10:40:13.048Z,0.99
2023-05-05T10:41:13.043Z,0.66
2023-05-05T10:42:13.159Z,0.41
2023-05-05T10:43:13.524Z,0.58
2023-05-05T10:44:13.027Z,0.87
2023-05-05T10:45:13.046Z,1.17
2023-05-05T10:46:13.102Z,1.51
2023-05-05T10:47:13.156Z,1.77
2023-05-05T10:48:13.157Z,1.28
2023-05-05T10:49:13.513Z,0.73
2023-05-05T10:50:13.059Z,0.59
2023-05-05T10:51:15.426Z,0.46
2023-05-05T10:52:13.974Z,0.47
2023-05-05T10:53:12.958Z,0.51
2023-05-05T10:54:13.074Z,0.65
2023-05-05T10:55:13.098Z,0.68
2023-05-05T10:56:12.935Z,0.51
2023-05-05T10:57:12.962Z,0.34
2023-05-05T10:58:12.977Z,0.34
2023-05-05T10:59:12.912Z,0.34
2023-05-05T11:00:15.035Z,0.43
2023-05-05T11:01:13.002Z,0.34
2023-05-05T11:02:13.048Z,0.57
2023-05-05T11:03:13.157Z,0.56
2023-05-05T11:04:13.148Z,0.34
2023-05-05T11:05:13.571Z,0.34
2023-05-05T11:06:13.257Z,0.34
2023-05-05T11:07:15.019Z,0.42
2023-05-05T11:08:13.426Z,0.54
2023-05-05T11:09:13.479Z,0.94
2023-05-05T11:10:13.509Z,1.66
2023-05-05T11:11:13.536Z,1.09
2023-05-05T11:12:13.685Z,1.01
2023-05-05T11:13:13.663Z,0.95
2023-05-05T11:14:13.901Z,0.83
2023-05-05T11:15:13.722Z,1.08
2023-05-05T11:16:13.794Z,1.29
2023-05-05T11:17:13.918Z,1.79
2023-05-05T11:18:13.875Z,2.23
2023-05-05T11:19:13.850Z,2.82
2023-05-05T11:20:13.973Z,3.73
2023-05-05T11:21:14.008Z,4.39
2023-05-05T11:22:13.997Z,4.79
2023-05-05T11:23:16.567Z,5.62
2023-05-05T11:24:14.363Z,6.00
2023-05-05T11:25:14.404Z,6.52
2023-05-05T11:26:14.415Z,6.95
2023-05-05T11:27:14.459Z,7.29
2023-05-05T11:28:14.583Z,7.91
2023-05-05T11:29:14.588Z,8.44
2023-05-05T11:30:14.740Z,8.52
2023-05-05T11:31:14.677Z,8.94
2023-05-05T11:32:14.690Z,9.43
2023-05-05T11:33:14.699Z,10.18
2023-05-05T11:34:14.725Z,10.80
2023-05-05T11:35:14.718Z,11.15
2023-05-05T11:36:14.700Z,11.20
2023-05-05T11:37:14.701Z,12.19
2023-05-05T11:38:14.711Z,12.81
2023-05-05T11:39:14.703Z,12.86
2023-05-05T11:40:14.703Z,13.62
2023-05-05T11:41:14.712Z,13.82
2023-05-05T11:42:14.710Z,13.98
2023-05-05T11:43:14.694Z,15.05
2023-05-05T11:44:14.719Z,15.69
2023-05-05T11:45:14.734Z,16.27
2023-05-05T11:46:14.789Z,16.96
2023-05-05T11:47:14.741Z,17.39
2023-05-05T11:48:14.767Z,17.92
2023-05-05T11:49:14.756Z,18.38
2023-05-05T11:50:14.763Z,18.45
2023-05-05T11:51:14.751Z,18.76
2023-05-05T11:52:14.746Z,19.31
2023-05-05T11:53:14.785Z,19.50
2023-05-05T11:54:14.761Z,20.13
2023-05-05T11:55:14.804Z,20.29
2023-05-05T11:56:14.768Z,20.90
2023-05-05T11:57:14.803Z,21.35
2023-05-05T11:58:14.817Z,21.14
2023-05-05T11:59:14.821Z,21.79
2023-05-05T12:00:14.830Z,21.91
2023-05-05T12:01:14.872Z,22.04
2023-05-05T12:02:14.993Z,22.58
2023-05-05T12:03:14.977Z,22.87
2023-05-05T12:04:14.983Z,23.16
2023-05-05T12:05:14.909Z,23.22
2023-05-05T12:06:14.924Z,23.39
2023-05-05T12:07:14.979Z,23.30
2023-05-05T12:08:14.992Z,23.33
2023-05-05T12:09:14.959Z,23.99
2023-05-05T12:10:15.011Z,23.65
2023-05-05T12:11:15.005Z,24.21
2023-05-05T12:12:15.022Z,24.28
2023-05-05T12:13:15.096Z,24.62
2023-05-05T12:14:15.069Z,24.96
2023-05-05T12:15:15.096Z,24.45
2023-05-05T12:16:15.121Z,25.00
2023-05-05T12:17:15.130Z,24.91
2023-05-05T12:18:15.203Z,24.93
2023-05-05T12:19:15.150Z,25.53
2023-05-05T12:20:15.172Z,25.30
2023-05-05T12:21:15.207Z,25.77
2023-05-05T12:22:15.210Z,25.23
2023-05-05T12:23:15.587Z,25.76
2023-05-05T12:24:15.307Z,25.47
2023-05-05T12:25:15.283Z,25.45
2023-05-05T12:26:15.282Z,25.78
2023-05-05T12:27:15.319Z,25.35
2023-05-05T12:28:15.377Z,26.43
2023-05-05T12:29:15.394Z,26.08
2023-05-05T12:30:15.414Z,26.34
2023-05-05T12:31:15.477Z,25.47
2023-05-05T12:32:15.451Z,26.23
2023-05-05T12:33:15.438Z,25.94
2023-05-05T12:34:15.490Z,26.20
2023-05-05T12:35:15.458Z,26.27
2023-05-05T12:36:15.490Z,25.70
2023-05-05T12:37:15.514Z,26.24
2023-05-05T12:38:15.530Z,25.64
2023-05-05T12:39:15.584Z,25.24
2023-05-05T12:40:15.588Z,25.64
2023-05-05T12:41:15.614Z,25.94
2023-05-05T12:42:15.663Z,25.45
2023-05-05T12:43:15.766Z,25.00
2023-05-05T12:44:15.698Z,24.95
2023-05-05T12:45:15.690Z,24.90
2023-05-05T12:46:15.847Z,24.68
2023-05-05T12:47:15.739Z,24.15
2023-05-05T12:48:15.763Z,23.77
2023-05-05T12:49:15.784Z,23.62
2023-05-05T12:50:16.104Z,23.77
2023-05-05T12:51:15.835Z,22.94
2023-05-05T12:52:15.911Z,22.72
2023-05-05T12:53:15.881Z,23.26
2023-05-05T12:54:15.924Z,22.55
2023-05-05T12:55:16.103Z,22.25
2023-05-05T12:56:15.972Z,22.39
2023-05-05T12:57:15.985Z,22.09
2023-05-05T12:58:16.055Z,21.18
2023-05-05T12:59:16.075Z,22.18
2023-05-05T13:00:16.099Z,21.54
2023-05-05T13:01:16.115Z,20.85
2023-05-05T13:02:16.144Z,21.17
2023-05-05T13:03:16.200Z,20.90
2023-05-05T13:04:16.172Z,21.05
2023-05-05T13:05:16.204Z,20.87
2023-05-05T13:06:16.258Z,20.52
2023-05-05T13:07:16.255Z,20.63
2023-05-05T13:08:16.287Z,20.57
2023-05-05T13:09:16.311Z,20.11
2023-05-05T13:10:16.335Z,20.08
2023-05-05T13:11:16.367Z,20.21
2023-05-05T13:12:16.406Z,19.80
2023-05-05T13:13:16.523Z,19.66
2023-05-05T13:14:16.448Z,19.63
2023-05-05T13:15:16.456Z,19.87